Airfield :
LOGIN :

Register | Disclaimer

   EN    FR    IT 

 










Legend :    VFR   Marginal VFR   IFR   Intensive IFR   Very Intensive IFR
Visi :
Ceiling :
>= 8 km
>= 3000ft
5 to 8 km
1000 to 3000 ft
1500m to 5 km
500 to 1000 ft
800 to 1500m
200 to 500 ft
< 800m
< 200 ft
Symbols :   Thunderstorms  Fog  Heavy snow  Heavy precipitations  Wind > 20 kt
SIGMETs :     Misc.  Thunderstorms  Icing  Turbulence  Mountain Waves  Volcanic Ashes







- Airport Elevation : 614 ft
- IATA code : CRL


EBCI - Charleroi

CURRENT METAR :
  • 270620Z 05013KT 9999 BKN007 15/13 Q1028 NOSIG

EXPIRED METARs :
  • 270550Z 05012KT 9999 FEW004 BKN006 15/13 Q1027 NOSIG
  • 270520Z 04011KT 9999 FEW004 BKN006 15/13 Q1027 NOSIG
  • 270450Z 04011KT 9999 FEW004 BKN006 14/13 Q1027 TEMPO BKN004
  • 270420Z 04011KT 9999 BKN006 14/13 Q1027 TEMPO SCT006
  • 270350Z 04010KT 9999 FEW005 SCT006 14/13 Q1027 TEMPO BKN006

TAF TAF EBCI
Valid from the 27 at 06:00 until the 28 at 12:00 UTC


270510Z 2706/2812 04010KT 9999 BKN006
BECMG 2706/2708 FEW012
No reported NOTAMs for that airfield.



MET'MAP, your aeronautical weather chart ! - Copyright ORBIFLY December 2007 - Disclaimer

ORBIFLY MET'MAP TEAM :

Programming & Development : Alexandra Zaïnal
Concept & Development : Baudouin d'Aumeries
Co-Development & Prog : Marc-Olivier Méhu
Technical & hardware support : Manuel Goepfert

Contact : metmap@orbifly.com




SOURCES & CREDITS :

   NOAA